Terminal Aerodrome Forecast
Issued by NWS

Home | Current Version | Previous Version | Text Only | Print | Product List | Glossary On
Versions: 1 2 3 4 5 6 7 8 9 10 11 12 13
000
FTUS42 KMLB 282336
TAFSUA
TAF
KSUA 282336Z 2900/2924 VRB04KT P6SM SCT030 SCT100
     FM291400 21005KT P6SM SCT030
     FM291800 11008KT P6SM VCTS SCT040CB SCT060
      AMD LTD TO CLD AND WIND 2901/2911=

USA.gov is the U.S. government's official web portal to all federal, state and local government web resources and services.